sensor_id;sensor_type;location;lat;lon;timestamp;P1;durP1;ratioP1;P2;durP2;ratioP2
31238;SDS011;17871;31.584;74.450;2023-05-16T00:01:27;70.28;;;18.60;;
31238;SDS011;17871;31.584;74.450;2023-05-16T00:04:00;66.10;;;19.92;;
31238;SDS011;17871;31.584;74.450;2023-05-16T00:06:35;62.28;;;18.80;;
31238;SDS011;17871;31.584;74.450;2023-05-16T00:09:07;65.05;;;21.88;;
31238;SDS011;17871;31.584;74.450;2023-05-16T00:11:39;73.13;;;21.50;;
31238;SDS011;17871;31.584;74.450;2023-05-16T00:14:18;84.18;;;24.63;;
31238;SDS011;17871;31.584;74.450;2023-05-16T00:17:06;108.80;;;24.48;;
31238;SDS011;17871;31.584;74.450;2023-05-16T00:19:41;159.85;;;27.40;;
31238;SDS011;17871;31.584;74.450;2023-05-16T00:22:15;212.07;;;34.13;;
31238;SDS011;17871;31.584;74.450;2023-05-16T00:24:49;241.48;;;32.75;;
31238;SDS011;17871;31.584;74.450;2023-05-16T00:27:23;245.70;;;34.47;;
31238;SDS011;17871;31.584;74.450;2023-05-16T00:33:00;266.38;;;32.90;;
31238;SDS011;17871;31.584;74.450;2023-05-16T00:40:46;266.85;;;37.53;;
31238;SDS011;17871;31.584;74.450;2023-05-16T00:45:50;284.55;;;39.08;;
31238;SDS011;17871;31.584;74.450;2023-05-16T00:48:23;291.38;;;36.03;;
31238;SDS011;17871;31.584;74.450;2023-05-16T00:50:56;304.85;;;38.75;;
31238;SDS011;17871;31.584;74.450;2023-05-16T00:53:37;301.10;;;37.85;;
31238;SDS011;17871;31.584;74.450;2023-05-16T00:59:19;318.67;;;34.17;;
31238;SDS011;17871;31.584;74.450;2023-05-16T01:01:51;350.67;;;36.53;;
31238;SDS011;17871;31.584;74.450;2023-05-16T01:04:27;314.23;;;33.95;;
31238;SDS011;17871;31.584;74.450;2023-05-16T01:07:13;313.08;;;35.47;;
31238;SDS011;17871;31.584;74.450;2023-05-16T01:09:49;387.17;;;41.03;;
31238;SDS011;17871;31.584;74.450;2023-05-16T01:12:30;341.63;;;34.50;;
31238;SDS011;17871;31.584;74.450;2023-05-16T01:15:24;358.92;;;40.58;;
31238;SDS011;17871;31.584;74.450;2023-05-16T01:18:24;337.55;;;38.35;;
31238;SDS011;17871;31.584;74.450;2023-05-16T01:21:03;290.52;;;32.30;;
31238;SDS011;17871;31.584;74.450;2023-05-16T01:24:55;306.27;;;33.65;;
31238;SDS011;17871;31.584;74.450;2023-05-16T01:27:39;329.50;;;33.13;;
31238;SDS011;17871;31.584;74.450;2023-05-16T01:30:15;360.48;;;39.38;;
31238;SDS011;17871;31.584;74.450;2023-05-16T01:32:51;348.75;;;37.53;;
31238;SDS011;17871;31.584;74.450;2023-05-16T01:35:32;316.88;;;36.28;;
31238;SDS011;17871;31.584;74.450;2023-05-16T01:38:51;337.33;;;40.58;;
31238;SDS011;17871;31.584;74.450;2023-05-16T01:47:26;336.63;;;38.33;;
31238;SDS011;17871;31.584;74.450;2023-05-16T01:53:41;326.23;;;33.80;;
31238;SDS011;17871;31.584;74.450;2023-05-16T01:56:19;355.60;;;36.75;;
31238;SDS011;17871;31.584;74.450;2023-05-16T01:58:55;357.30;;;32.88;;
31238;SDS011;17871;31.584;74.450;2023-05-16T02:01:31;304.02;;;32.50;;
31238;SDS011;17871;31.584;74.450;2023-05-16T02:04:06;272.55;;;31.13;;
31238;SDS011;17871;31.584;74.450;2023-05-16T02:06:43;252.15;;;31.48;;
31238;SDS011;17871;31.584;74.450;2023-05-16T02:09:24;336.45;;;31.08;;
31238;SDS011;17871;31.584;74.450;2023-05-16T02:11:55;316.63;;;35.03;;
31238;SDS011;17871;31.584;74.450;2023-05-16T02:14:30;326.63;;;33.83;;
31238;SDS011;17871;31.584;74.450;2023-05-16T02:17:12;312.17;;;29.02;;
31238;SDS011;17871;31.584;74.450;2023-05-16T02:19:49;299.65;;;33.97;;
31238;SDS011;17871;31.584;74.450;2023-05-16T02:22:23;350.25;;;64.65;;
31238;SDS011;17871;31.584;74.450;2023-05-16T02:24:56;255.77;;;40.03;;
31238;SDS011;17871;31.584;74.450;2023-05-16T02:27:28;297.95;;;44.38;;
31238;SDS011;17871;31.584;74.450;2023-05-16T02:30:01;301.35;;;44.47;;
31238;SDS011;17871;31.584;74.450;2023-05-16T02:33:18;326.63;;;51.10;;
31238;SDS011;17871;31.584;74.450;2023-05-16T02:36:05;310.38;;;43.15;;
31238;SDS011;17871;31.584;74.450;2023-05-16T02:38:51;281.55;;;39.28;;
31238;SDS011;17871;31.584;74.450;2023-05-16T02:43:56;288.42;;;41.75;;
31238;SDS011;17871;31.584;74.450;2023-05-16T02:46:28;285.13;;;44.38;;
31238;SDS011;17871;31.584;74.450;2023-05-16T02:49:11;272.85;;;46.53;;
31238;SDS011;17871;31.584;74.450;2023-05-16T02:51:47;398.15;;;62.22;;
31238;SDS011;17871;31.584;74.450;2023-05-16T02:54:25;344.40;;;50.28;;
31238;SDS011;17871;31.584;74.450;2023-05-16T02:57:00;248.57;;;40.58;;
31238;SDS011;17871;31.584;74.450;2023-05-16T02:59:54;257.67;;;35.45;;
31238;SDS011;17871;31.584;74.450;2023-05-16T03:02:26;280.75;;;39.55;;
31238;SDS011;17871;31.584;74.450;2023-05-16T03:04:55;250.95;;;33.83;;
31238;SDS011;17871;31.584;74.450;2023-05-16T03:07:25;219.05;;;30.90;;
31238;SDS011;17871;31.584;74.450;2023-05-16T03:09:55;279.70;;;38.13;;
31238;SDS011;17871;31.584;74.450;2023-05-16T03:12:24;239.60;;;34.20;;
31238;SDS011;17871;31.584;74.450;2023-05-16T03:14:54;246.52;;;37.03;;
31238;SDS011;17871;31.584;74.450;2023-05-16T03:17:23;253.38;;;33.13;;
31238;SDS011;17871;31.584;74.450;2023-05-16T03:19:53;209.35;;;33.45;;
31238;SDS011;17871;31.584;74.450;2023-05-16T03:22:23;213.60;;;36.05;;
31238;SDS011;17871;31.584;74.450;2023-05-16T03:24:54;220.63;;;33.75;;
31238;SDS011;17871;31.584;74.450;2023-05-16T03:27:24;225.70;;;31.38;;
31238;SDS011;17871;31.584;74.450;2023-05-16T03:29:55;204.15;;;31.38;;
31238;SDS011;17871;31.584;74.450;2023-05-16T03:32:25;235.63;;;36.65;;
31238;SDS011;17871;31.584;74.450;2023-05-16T03:34:55;246.15;;;35.80;;
31238;SDS011;17871;31.584;74.450;2023-05-16T03:37:26;225.05;;;38.30;;
31238;SDS011;17871;31.584;74.450;2023-05-16T03:39:56;221.88;;;36.90;;
31238;SDS011;17871;31.584;74.450;2023-05-16T03:42:28;203.40;;;36.75;;
31238;SDS011;17871;31.584;74.450;2023-05-16T03:44:59;183.50;;;31.67;;
31238;SDS011;17871;31.584;74.450;2023-05-16T03:47:29;176.80;;;35.15;;
31238;SDS011;17871;31.584;74.450;2023-05-16T03:49:59;191.60;;;34.10;;
31238;SDS011;17871;31.584;74.450;2023-05-16T03:52:30;175.52;;;37.33;;
31238;SDS011;17871;31.584;74.450;2023-05-16T03:55:04;158.93;;;33.90;;
31238;SDS011;17871;31.584;74.450;2023-05-16T03:57:43;141.52;;;33.05;;
31238;SDS011;17871;31.584;74.450;2023-05-16T04:00:17;134.75;;;29.48;;
31238;SDS011;17871;31.584;74.450;2023-05-16T04:02:47;118.13;;;27.65;;
31238;SDS011;17871;31.584;74.450;2023-05-16T04:05:21;120.95;;;25.42;;
31238;SDS011;17871;31.584;74.450;2023-05-16T04:07:52;100.43;;;24.33;;
31238;SDS011;17871;31.584;74.450;2023-05-16T04:10:25;103.10;;;22.85;;
31238;SDS011;17871;31.584;74.450;2023-05-16T04:13:00;99.93;;;21.92;;
31238;SDS011;17871;31.584;74.450;2023-05-16T04:15:37;77.03;;;24.88;;
31238;SDS011;17871;31.584;74.450;2023-05-16T04:18:09;83.63;;;22.65;;
31238;SDS011;17871;31.584;74.450;2023-05-16T04:20:46;97.75;;;22.30;;
31238;SDS011;17871;31.584;74.450;2023-05-16T04:23:16;92.78;;;25.85;;
31238;SDS011;17871;31.584;74.450;2023-05-16T04:25:48;108.55;;;24.40;;
31238;SDS011;17871;31.584;74.450;2023-05-16T04:28:20;102.40;;;26.53;;
31238;SDS011;17871;31.584;74.450;2023-05-16T04:30:53;77.35;;;22.70;;
31238;SDS011;17871;31.584;74.450;2023-05-16T04:33:24;92.10;;;22.73;;
31238;SDS011;17871;31.584;74.450;2023-05-16T04:36:08;66.88;;;22.33;;
31238;SDS011;17871;31.584;74.450;2023-05-16T04:38:39;108.00;;;20.05;;
31238;SDS011;17871;31.584;74.450;2023-05-16T04:41:13;107.93;;;19.85;;
31238;SDS011;17871;31.584;74.450;2023-05-16T04:43:52;71.40;;;16.85;;
31238;SDS011;17871;31.584;74.450;2023-05-16T04:46:35;54.72;;;16.85;;
31238;SDS011;17871;31.584;74.450;2023-05-16T04:49:13;55.63;;;17.58;;
31238;SDS011;17871;31.584;74.450;2023-05-16T04:51:51;56.03;;;17.60;;
31238;SDS011;17871;31.584;74.450;2023-05-16T04:54:26;67.10;;;17.50;;
31238;SDS011;17871;31.584;74.450;2023-05-16T04:56:57;47.58;;;16.27;;
31238;SDS011;17871;31.584;74.450;2023-05-16T05:00:12;49.63;;;16.08;;
31238;SDS011;17871;31.584;74.450;2023-05-16T05:02:53;64.55;;;17.52;;
31238;SDS011;17871;31.584;74.450;2023-05-16T05:06:11;49.90;;;16.27;;
31238;SDS011;17871;31.584;74.450;2023-05-16T05:08:46;105.03;;;18.27;;
31238;SDS011;17871;31.584;74.450;2023-05-16T05:11:23;58.10;;;16.58;;
31238;SDS011;17871;31.584;74.450;2023-05-16T05:14:13;52.03;;;14.07;;
31238;SDS011;17871;31.584;74.450;2023-05-16T05:16:46;42.28;;;13.98;;
31238;SDS011;17871;31.584;74.450;2023-05-16T05:19:44;52.47;;;14.90;;
31238;SDS011;17871;31.584;74.450;2023-05-16T05:22:15;95.15;;;14.60;;
31238;SDS011;17871;31.584;74.450;2023-05-16T05:24:57;47.45;;;13.43;;
31238;SDS011;17871;31.584;74.450;2023-05-16T05:27:40;44.42;;;14.20;;
31238;SDS011;17871;31.584;74.450;2023-05-16T05:30:23;66.78;;;15.43;;
31238;SDS011;17871;31.584;74.450;2023-05-16T05:33:03;35.28;;;15.32;;
31238;SDS011;17871;31.584;74.450;2023-05-16T05:35:44;61.05;;;16.35;;
31238;SDS011;17871;31.584;74.450;2023-05-16T05:38:27;73.45;;;18.33;;
31238;SDS011;17871;31.584;74.450;2023-05-16T05:46:42;57.88;;;16.92;;
31238;SDS011;17871;31.584;74.450;2023-05-16T05:49:20;64.30;;;16.35;;
31238;SDS011;17871;31.584;74.450;2023-05-16T05:52:16;40.70;;;12.50;;
31238;SDS011;17871;31.584;74.450;2023-05-16T05:55:07;45.15;;;13.38;;
31238;SDS011;17871;31.584;74.450;2023-05-16T05:57:48;80.35;;;14.82;;
31238;SDS011;17871;31.584;74.450;2023-05-16T06:03:36;45.50;;;10.18;;
31238;SDS011;17871;31.584;74.450;2023-05-16T06:06:20;46.08;;;11.70;;
31238;SDS011;17871;31.584;74.450;2023-05-16T06:09:06;41.25;;;10.35;;
31238;SDS011;17871;31.584;74.450;2023-05-16T06:12:04;93.93;;;14.00;;
31238;SDS011;17871;31.584;74.450;2023-05-16T06:17:35;34.83;;;10.68;;
31238;SDS011;17871;31.584;74.450;2023-05-16T06:20:12;40.47;;;11.73;;
31238;SDS011;17871;31.584;74.450;2023-05-16T06:23:29;40.40;;;11.45;;
31238;SDS011;17871;31.584;74.450;2023-05-16T06:26:28;45.45;;;14.43;;
31238;SDS011;17871;31.584;74.450;2023-05-16T06:32:38;49.70;;;11.27;;
31238;SDS011;17871;31.584;74.450;2023-05-16T06:38:22;25.40;;;8.68;;
31238;SDS011;17871;31.584;74.450;2023-05-16T06:48:06;21.13;;;8.97;;
31238;SDS011;17871;31.584;74.450;2023-05-16T06:50:51;50.72;;;10.52;;
31238;SDS011;17871;31.584;74.450;2023-05-16T06:53:27;25.05;;;8.57;;
31238;SDS011;17871;31.584;74.450;2023-05-16T06:56:07;37.63;;;8.45;;
31238;SDS011;17871;31.584;74.450;2023-05-16T06:59:26;32.33;;;8.82;;
31238;SDS011;17871;31.584;74.450;2023-05-16T07:02:24;34.97;;;8.75;;
31238;SDS011;17871;31.584;74.450;2023-05-16T07:05:06;30.67;;;10.50;;
31238;SDS011;17871;31.584;74.450;2023-05-16T07:08:07;17.38;;;8.02;;
31238;SDS011;17871;31.584;74.450;2023-05-16T07:11:10;36.30;;;9.25;;
31238;SDS011;17871;31.584;74.450;2023-05-16T07:13:54;42.80;;;9.05;;
31238;SDS011;17871;31.584;74.450;2023-05-16T07:16:36;23.75;;;9.75;;
31238;SDS011;17871;31.584;74.450;2023-05-16T07:22:32;40.60;;;10.27;;
31238;SDS011;17871;31.584;74.450;2023-05-16T07:25:25;25.40;;;8.57;;
31238;SDS011;17871;31.584;74.450;2023-05-16T07:28:29;32.95;;;9.02;;
31238;SDS011;17871;31.584;74.450;2023-05-16T07:31:04;34.58;;;8.93;;
31238;SDS011;17871;31.584;74.450;2023-05-16T07:34:00;23.35;;;9.68;;
31238;SDS011;17871;31.584;74.450;2023-05-16T07:36:35;23.98;;;8.48;;
31238;SDS011;17871;31.584;74.450;2023-05-16T07:39:33;28.83;;;9.48;;
31238;SDS011;17871;31.584;74.450;2023-05-16T07:42:40;28.25;;;9.02;;
31238;SDS011;17871;31.584;74.450;2023-05-16T07:45:56;30.55;;;8.93;;
31238;SDS011;17871;31.584;74.450;2023-05-16T07:51:20;43.45;;;9.65;;
31238;SDS011;17871;31.584;74.450;2023-05-16T07:58:02;32.47;;;8.32;;
31238;SDS011;17871;31.584;74.450;2023-05-16T08:01:12;42.17;;;9.15;;
31238;SDS011;17871;31.584;74.450;2023-05-16T08:04:01;27.35;;;7.45;;
31238;SDS011;17871;31.584;74.450;2023-05-16T08:06:57;33.78;;;8.43;;
31238;SDS011;17871;31.584;74.450;2023-05-16T08:12:42;42.28;;;8.95;;
31238;SDS011;17871;31.584;74.450;2023-05-16T08:18:17;17.45;;;7.63;;
31238;SDS011;17871;31.584;74.450;2023-05-16T08:23:42;48.70;;;8.50;;
31238;SDS011;17871;31.584;74.450;2023-05-16T08:29:12;44.85;;;9.70;;
31238;SDS011;17871;31.584;74.450;2023-05-16T08:32:00;91.07;;;11.32;;
31238;SDS011;17871;31.584;74.450;2023-05-16T08:35:04;25.05;;;7.55;;
31238;SDS011;17871;31.584;74.450;2023-05-16T08:38:24;22.58;;;6.55;;
31238;SDS011;17871;31.584;74.450;2023-05-16T08:41:03;13.75;;;6.70;;
31238;SDS011;17871;31.584;74.450;2023-05-16T08:43:55;26.48;;;7.30;;
31238;SDS011;17871;31.584;74.450;2023-05-16T08:46:28;41.75;;;8.95;;
31238;SDS011;17871;31.584;74.450;2023-05-16T08:49:23;33.50;;;8.25;;
31238;SDS011;17871;31.584;74.450;2023-05-16T08:52:40;22.02;;;7.28;;
31238;SDS011;17871;31.584;74.450;2023-05-16T09:00:02;27.88;;;8.95;;
31238;SDS011;17871;31.584;74.450;2023-05-16T09:03:18;32.38;;;8.82;;
31238;SDS011;17871;31.584;74.450;2023-05-16T09:05:58;27.95;;;8.52;;
31238;SDS011;17871;31.584;74.450;2023-05-16T09:11:56;58.53;;;9.30;;
31238;SDS011;17871;31.584;74.450;2023-05-16T09:14:32;41.38;;;8.38;;
31238;SDS011;17871;31.584;74.450;2023-05-16T09:17:42;24.77;;;8.48;;
31238;SDS011;17871;31.584;74.450;2023-05-16T09:20:24;50.15;;;8.40;;
31238;SDS011;17871;31.584;74.450;2023-05-16T09:23:27;26.77;;;7.47;;
31238;SDS011;17871;31.584;74.450;2023-05-16T09:26:22;41.03;;;7.35;;
31238;SDS011;17871;31.584;74.450;2023-05-16T09:29:16;45.05;;;8.07;;
31238;SDS011;17871;31.584;74.450;2023-05-16T09:32:17;44.67;;;8.73;;
31238;SDS011;17871;31.584;74.450;2023-05-16T09:35:00;33.30;;;8.13;;
31238;SDS011;17871;31.584;74.450;2023-05-16T09:37:50;26.55;;;8.00;;
31238;SDS011;17871;31.584;74.450;2023-05-16T09:40:49;43.22;;;13.48;;
31238;SDS011;17871;31.584;74.450;2023-05-16T09:47:13;89.90;;;13.02;;
31238;SDS011;17871;31.584;74.450;2023-05-16T09:50:52;59.20;;;12.77;;
31238;SDS011;17871;31.584;74.450;2023-05-16T09:53:41;117.15;;;21.00;;
31238;SDS011;17871;31.584;74.450;2023-05-16T09:56:49;78.15;;;14.68;;
31238;SDS011;17871;31.584;74.450;2023-05-16T09:59:55;76.82;;;16.23;;
31238;SDS011;17871;31.584;74.450;2023-05-16T10:03:06;95.90;;;15.55;;
31238;SDS011;17871;31.584;74.450;2023-05-16T10:06:54;82.35;;;9.15;;
31238;SDS011;17871;31.584;74.450;2023-05-16T10:10:08;124.50;;;11.15;;
31238;SDS011;17871;31.584;74.450;2023-05-16T10:13:04;44.92;;;7.18;;
31238;SDS011;17871;31.584;74.450;2023-05-16T10:16:06;83.72;;;8.93;;
31238;SDS011;17871;31.584;74.450;2023-05-16T10:19:24;81.05;;;10.68;;
31238;SDS011;17871;31.584;74.450;2023-05-16T10:22:34;93.82;;;9.10;;
31238;SDS011;17871;31.584;74.450;2023-05-16T10:25:33;168.23;;;17.27;;
31238;SDS011;17871;31.584;74.450;2023-05-16T10:28:15;45.93;;;7.27;;
31238;SDS011;17871;31.584;74.450;2023-05-16T10:31:17;36.03;;;5.65;;
31238;SDS011;17871;31.584;74.450;2023-05-16T10:34:21;29.77;;;5.90;;
31238;SDS011;17871;31.584;74.450;2023-05-16T10:37:16;51.35;;;7.47;;
31238;SDS011;17871;31.584;74.450;2023-05-16T10:40:19;47.65;;;8.55;;
31238;SDS011;17871;31.584;74.450;2023-05-16T10:43:10;37.00;;;8.43;;
31238;SDS011;17871;31.584;74.450;2023-05-16T10:46:11;55.08;;;6.72;;
31238;SDS011;17871;31.584;74.450;2023-05-16T10:49:18;37.30;;;6.18;;
31238;SDS011;17871;31.584;74.450;2023-05-16T10:52:10;48.70;;;8.02;;
31238;SDS011;17871;31.584;74.450;2023-05-16T10:54:51;34.58;;;6.68;;
31238;SDS011;17871;31.584;74.450;2023-05-16T10:57:58;40.03;;;6.97;;
31238;SDS011;17871;31.584;74.450;2023-05-16T11:04:01;30.35;;;8.55;;
31238;SDS011;17871;31.584;74.450;2023-05-16T11:12:48;32.35;;;8.93;;
31238;SDS011;17871;31.584;74.450;2023-05-16T11:15:39;63.10;;;12.45;;
31238;SDS011;17871;31.584;74.450;2023-05-16T11:18:34;26.80;;;8.15;;
31238;SDS011;17871;31.584;74.450;2023-05-16T11:22:04;31.30;;;7.68;;
31238;SDS011;17871;31.584;74.450;2023-05-16T11:25:10;34.35;;;7.70;;
31238;SDS011;17871;31.584;74.450;2023-05-16T11:27:52;28.30;;;8.48;;
31238;SDS011;17871;31.584;74.450;2023-05-16T11:30:35;34.45;;;7.35;;
31238;SDS011;17871;31.584;74.450;2023-05-16T11:36:48;25.95;;;4.90;;
31238;SDS011;17871;31.584;74.450;2023-05-16T11:39:59;23.42;;;5.30;;
31238;SDS011;17871;31.584;74.450;2023-05-16T11:50:33;23.60;;;4.22;;
31238;SDS011;17871;31.584;74.450;2023-05-16T11:56:50;25.00;;;5.38;;
31238;SDS011;17871;31.584;74.450;2023-05-16T11:59:35;28.65;;;5.55;;
31238;SDS011;17871;31.584;74.450;2023-05-16T12:16:15;32.65;;;5.47;;
31238;SDS011;17871;31.584;74.450;2023-05-16T12:18:55;36.97;;;5.97;;
31238;SDS011;17871;31.584;74.450;2023-05-16T12:21:54;18.95;;;5.63;;
31238;SDS011;17871;31.584;74.450;2023-05-16T12:24:32;20.25;;;5.20;;
31238;SDS011;17871;31.584;74.450;2023-05-16T12:30:48;22.70;;;6.40;;
31238;SDS011;17871;31.584;74.450;2023-05-16T12:33:42;18.58;;;6.45;;
31238;SDS011;17871;31.584;74.450;2023-05-16T12:36:24;42.45;;;9.90;;
31238;SDS011;17871;31.584;74.450;2023-05-16T12:39:12;22.80;;;7.45;;
31238;SDS011;17871;31.584;74.450;2023-05-16T12:42:14;24.25;;;7.03;;
31238;SDS011;17871;31.584;74.450;2023-05-16T12:45:05;24.25;;;9.20;;
31238;SDS011;17871;31.584;74.450;2023-05-16T12:58:18;37.28;;;7.65;;
31238;SDS011;17871;31.584;74.450;2023-05-16T13:01:25;32.42;;;7.70;;
31238;SDS011;17871;31.584;74.450;2023-05-16T13:04:42;27.50;;;7.97;;
31238;SDS011;17871;31.584;74.450;2023-05-16T13:07:45;35.63;;;8.48;;
31238;SDS011;17871;31.584;74.450;2023-05-16T13:10:50;30.83;;;9.52;;
31238;SDS011;17871;31.584;74.450;2023-05-16T13:13:43;40.70;;;9.73;;
31238;SDS011;17871;31.584;74.450;2023-05-16T13:16:21;38.30;;;11.68;;
31238;SDS011;17871;31.584;74.450;2023-05-16T13:23:16;43.10;;;12.68;;
31238;SDS011;17871;31.584;74.450;2023-05-16T13:42:13;39.80;;;12.02;;
31238;SDS011;17871;31.584;74.450;2023-05-16T13:45:22;38.00;;;12.50;;
31238;SDS011;17871;31.584;74.450;2023-05-16T13:48:15;43.13;;;13.43;;
31238;SDS011;17871;31.584;74.450;2023-05-16T13:51:07;49.03;;;12.30;;
31238;SDS011;17871;31.584;74.450;2023-05-16T13:53:46;50.83;;;14.93;;
31238;SDS011;17871;31.584;74.450;2023-05-16T13:56:43;55.20;;;15.80;;
31238;SDS011;17871;31.584;74.450;2023-05-16T13:59:50;51.13;;;17.08;;
31238;SDS011;17871;31.584;74.450;2023-05-16T14:09:27;47.83;;;14.90;;
31238;SDS011;17871;31.584;74.450;2023-05-16T14:12:15;45.97;;;13.00;;
31238;SDS011;17871;31.584;74.450;2023-05-16T14:17:49;53.47;;;15.07;;
31238;SDS011;17871;31.584;74.450;2023-05-16T14:20:50;42.38;;;13.68;;
31238;SDS011;17871;31.584;74.450;2023-05-16T14:23:55;58.37;;;18.63;;
31238;SDS011;17871;31.584;74.450;2023-05-16T14:26:35;64.15;;;18.17;;
31238;SDS011;17871;31.584;74.450;2023-05-16T14:29:10;66.43;;;19.35;;
31238;SDS011;17871;31.584;74.450;2023-05-16T14:32:20;76.82;;;25.88;;
31238;SDS011;17871;31.584;74.450;2023-05-16T14:38:42;53.20;;;16.45;;
31238;SDS011;17871;31.584;74.450;2023-05-16T14:41:39;55.88;;;17.38;;
31238;SDS011;17871;31.584;74.450;2023-05-16T14:44:14;53.20;;;17.95;;
31238;SDS011;17871;31.584;74.450;2023-05-16T14:46:52;60.33;;;20.50;;
31238;SDS011;17871;31.584;74.450;2023-05-16T14:49:34;44.95;;;16.83;;
31238;SDS011;17871;31.584;74.450;2023-05-16T14:52:20;56.60;;;17.10;;
31238;SDS011;17871;31.584;74.450;2023-05-16T15:03:06;57.03;;;19.88;;
31238;SDS011;17871;31.584;74.450;2023-05-16T15:09:49;56.10;;;18.42;;
31238;SDS011;17871;31.584;74.450;2023-05-16T15:26:27;48.17;;;21.95;;
31238;SDS011;17871;31.584;74.450;2023-05-16T15:29:20;69.75;;;23.63;;
31238;SDS011;17871;31.584;74.450;2023-05-16T15:32:27;133.35;;;47.72;;
31238;SDS011;17871;31.584;74.450;2023-05-16T15:38:39;101.78;;;40.15;;
31238;SDS011;17871;31.584;74.450;2023-05-16T15:41:27;113.45;;;46.25;;
31238;SDS011;17871;31.584;74.450;2023-05-16T15:44:42;175.43;;;72.85;;
31238;SDS011;17871;31.584;74.450;2023-05-16T15:47:19;222.27;;;85.03;;
31238;SDS011;17871;31.584;74.450;2023-05-16T15:53:25;140.18;;;56.28;;
31238;SDS011;17871;31.584;74.450;2023-05-16T15:56:22;127.22;;;46.60;;
31238;SDS011;17871;31.584;74.450;2023-05-16T15:59:23;99.85;;;39.58;;
31238;SDS011;17871;31.584;74.450;2023-05-16T16:02:24;87.53;;;32.88;;
31238;SDS011;17871;31.584;74.450;2023-05-16T16:05:18;63.97;;;26.52;;
31238;SDS011;17871;31.584;74.450;2023-05-16T16:12:27;89.93;;;38.67;;
31238;SDS011;17871;31.584;74.450;2023-05-16T16:15:17;118.60;;;47.08;;
31238;SDS011;17871;31.584;74.450;2023-05-16T16:18:22;134.40;;;45.45;;
31238;SDS011;17871;31.584;74.450;2023-05-16T16:21:11;97.78;;;42.92;;
31238;SDS011;17871;31.584;74.450;2023-05-16T16:23:50;79.18;;;36.75;;
31238;SDS011;17871;31.584;74.450;2023-05-16T16:29:39;76.40;;;30.75;;
31238;SDS011;17871;31.584;74.450;2023-05-16T16:32:46;72.95;;;28.42;;
31238;SDS011;17871;31.584;74.450;2023-05-16T16:38:47;92.75;;;38.25;;
31238;SDS011;17871;31.584;74.450;2023-05-16T16:45:49;88.80;;;40.58;;
31238;SDS011;17871;31.584;74.450;2023-05-16T16:48:26;108.50;;;42.15;;
31238;SDS011;17871;31.584;74.450;2023-05-16T16:54:39;106.82;;;50.35;;
31238;SDS011;17871;31.584;74.450;2023-05-16T17:01:36;111.68;;;49.40;;
31238;SDS011;17871;31.584;74.450;2023-05-16T17:05:03;132.82;;;55.03;;
31238;SDS011;17871;31.584;74.450;2023-05-16T17:07:41;132.43;;;52.97;;
31238;SDS011;17871;31.584;74.450;2023-05-16T17:14:47;114.82;;;48.00;;
31238;SDS011;17871;31.584;74.450;2023-05-16T17:17:47;117.80;;;47.17;;
31238;SDS011;17871;31.584;74.450;2023-05-16T17:21:15;110.18;;;45.60;;
31238;SDS011;17871;31.584;74.450;2023-05-16T17:27:59;98.75;;;41.17;;
31238;SDS011;17871;31.584;74.450;2023-05-16T17:31:31;102.95;;;42.17;;
31238;SDS011;17871;31.584;74.450;2023-05-16T17:34:23;107.38;;;43.22;;
31238;SDS011;17871;31.584;74.450;2023-05-16T17:44:19;109.53;;;44.63;;
31238;SDS011;17871;31.584;74.450;2023-05-16T17:47:13;96.22;;;42.63;;
31238;SDS011;17871;31.584;74.450;2023-05-16T17:50:09;101.50;;;42.40;;
31238;SDS011;17871;31.584;74.450;2023-05-16T17:56:56;102.00;;;40.40;;
31238;SDS011;17871;31.584;74.450;2023-05-16T18:07:31;87.15;;;39.67;;
31238;SDS011;17871;31.584;74.450;2023-05-16T18:10:43;111.18;;;42.95;;
31238;SDS011;17871;31.584;74.450;2023-05-16T18:13:51;100.40;;;40.65;;
31238;SDS011;17871;31.584;74.450;2023-05-16T18:16:47;76.10;;;37.35;;
31238;SDS011;17871;31.584;74.450;2023-05-16T18:22:57;72.40;;;33.13;;
31238;SDS011;17871;31.584;74.450;2023-05-16T18:25:58;87.05;;;34.00;;
31238;SDS011;17871;31.584;74.450;2023-05-16T18:29:25;78.22;;;33.25;;
31238;SDS011;17871;31.584;74.450;2023-05-16T18:32:46;80.10;;;33.55;;
31238;SDS011;17871;31.584;74.450;2023-05-16T18:36:17;97.10;;;36.60;;
31238;SDS011;17871;31.584;74.450;2023-05-16T18:38:59;110.45;;;39.00;;
31238;SDS011;17871;31.584;74.450;2023-05-16T18:45:32;90.07;;;35.70;;
31238;SDS011;17871;31.584;74.450;2023-05-16T18:48:22;93.57;;;37.85;;
31238;SDS011;17871;31.584;74.450;2023-05-16T18:51:28;95.00;;;35.65;;
31238;SDS011;17871;31.584;74.450;2023-05-16T19:01:28;753.15;;;481.60;;
31238;SDS011;17871;31.584;74.450;2023-05-16T19:07:44;402.98;;;192.25;;
31238;SDS011;17871;31.584;74.450;2023-05-16T19:13:53;192.68;;;84.15;;
31238;SDS011;17871;31.584;74.450;2023-05-16T19:17:00;157.80;;;62.23;;
31238;SDS011;17871;31.584;74.450;2023-05-16T19:19:58;202.10;;;80.22;;
31238;SDS011;17871;31.584;74.450;2023-05-16T19:22:57;206.73;;;103.70;;
31238;SDS011;17871;31.584;74.450;2023-05-16T19:34:48;114.97;;;45.42;;
31238;SDS011;17871;31.584;74.450;2023-05-16T19:37:20;105.82;;;43.40;;
31238;SDS011;17871;31.584;74.450;2023-05-16T19:40:01;99.45;;;40.30;;
31238;SDS011;17871;31.584;74.450;2023-05-16T19:42:36;99.72;;;37.17;;
31238;SDS011;17871;31.584;74.450;2023-05-16T19:54:54;99.63;;;35.53;;
31238;SDS011;17871;31.584;74.450;2023-05-16T19:57:23;89.32;;;36.97;;
31238;SDS011;17871;31.584;74.450;2023-05-16T19:59:53;88.55;;;35.45;;
31238;SDS011;17871;31.584;74.450;2023-05-16T20:02:26;106.05;;;38.15;;
31238;SDS011;17871;31.584;74.450;2023-05-16T20:08:03;83.88;;;35.80;;
31238;SDS011;17871;31.584;74.450;2023-05-16T20:11:16;98.90;;;37.58;;
31238;SDS011;17871;31.584;74.450;2023-05-16T20:17:27;89.78;;;36.70;;
31238;SDS011;17871;31.584;74.450;2023-05-16T20:19:57;88.70;;;35.22;;
31238;SDS011;17871;31.584;74.450;2023-05-16T20:22:27;92.20;;;35.03;;
31238;SDS011;17871;31.584;74.450;2023-05-16T20:31:43;96.22;;;35.03;;
31238;SDS011;17871;31.584;74.450;2023-05-16T20:34:21;98.63;;;36.77;;
31238;SDS011;17871;31.584;74.450;2023-05-16T20:37:00;99.13;;;36.47;;
31238;SDS011;17871;31.584;74.450;2023-05-16T20:40:14;233.27;;;92.65;;
31238;SDS011;17871;31.584;74.450;2023-05-16T20:42:54;269.98;;;110.60;;
31238;SDS011;17871;31.584;74.450;2023-05-16T20:45:28;250.50;;;101.68;;
31238;SDS011;17871;31.584;74.450;2023-05-16T20:48:23;207.70;;;89.67;;
31238;SDS011;17871;31.584;74.450;2023-05-16T20:50:59;184.70;;;74.32;;
31238;SDS011;17871;31.584;74.450;2023-05-16T20:54:11;177.68;;;69.57;;
31238;SDS011;17871;31.584;74.450;2023-05-16T20:56:41;143.23;;;60.08;;
31238;SDS011;17871;31.584;74.450;2023-05-16T20:59:12;132.55;;;60.05;;
31238;SDS011;17871;31.584;74.450;2023-05-16T21:07:53;100.75;;;46.85;;
31238;SDS011;17871;31.584;74.450;2023-05-16T21:10:22;101.90;;;46.67;;
31238;SDS011;17871;31.584;74.450;2023-05-16T21:12:52;130.93;;;54.80;;